createdAt,value
2022-10-17T00:00:11.743Z,100951.09
2022-10-17T00:00:44.763Z,100955.80
2022-10-17T00:01:18.008Z,100953.70
2022-10-17T00:01:31.406Z,100953.91
2022-10-17T00:01:44.552Z,100956.04
2022-10-17T00:01:57.551Z,100953.60
2022-10-17T00:02:10.733Z,100956.25
2022-10-17T00:02:23.805Z,100953.30
2022-10-17T00:02:36.933Z,100952.77
2022-10-17T00:02:50.347Z,100955.58
2022-10-17T00:03:03.514Z,100956.64
2022-10-17T00:03:16.969Z,100952.63
2022-10-17T00:03:29.976Z,100954.00
2022-10-17T00:03:43.493Z,100956.97
2022-10-17T00:03:56.754Z,100957.64
2022-10-17T00:04:09.734Z,100955.05
2022-10-17T00:04:22.747Z,100958.20
2022-10-17T00:04:35.737Z,100958.33
2022-10-17T00:04:48.687Z,100963.41
2022-10-17T00:05:01.681Z,100960.08
2022-10-17T00:05:15.050Z,100962.15
2022-10-17T00:05:28.116Z,100961.44
2022-10-17T00:05:43.942Z,100960.90
2022-10-17T00:05:58.336Z,100958.80
2022-10-17T00:06:15.441Z,100964.91
2022-10-17T00:06:28.633Z,100963.89
2022-10-17T00:06:42.414Z,100960.38
2022-10-17T00:06:56.074Z,100961.96
2022-10-17T00:07:07.473Z,100961.45
2022-10-17T00:07:20.441Z,100965.48
2022-10-17T00:07:33.539Z,100965.67
2022-10-17T00:07:46.530Z,100967.63
2022-10-17T00:07:58.625Z,100965.00
2022-10-17T00:08:12.645Z,100964.13
2022-10-17T00:08:25.689Z,100962.55
2022-10-17T00:08:40.845Z,100963.95
2022-10-17T00:08:52.249Z,100962.75
2022-10-17T00:09:05.388Z,100964.50
2022-10-17T00:09:16.702Z,100963.46
2022-10-17T00:09:30.072Z,100966.24
2022-10-17T00:09:43.040Z,100963.81
2022-10-17T00:09:56.636Z,100964.36
2022-10-17T00:10:10.689Z,100966.11
2022-10-17T00:10:23.805Z,100963.85
2022-10-17T00:10:37.281Z,100964.23
2022-10-17T00:10:59.484Z,100966.02
2022-10-17T00:11:16.975Z,100964.98
2022-10-17T00:11:30.131Z,100962.38
2022-10-17T00:11:43.092Z,100963.25
2022-10-17T00:11:56.106Z,100963.80
2022-10-17T00:12:09.240Z,100964.32
2022-10-17T00:12:22.252Z,100965.74
2022-10-17T00:12:35.874Z,100966.95
2022-10-17T00:12:48.948Z,100966.45
2022-10-17T00:13:01.952Z,100964.00
2022-10-17T00:13:15.153Z,100969.23
2022-10-17T00:13:29.049Z,100966.45
2022-10-17T00:13:42.081Z,100964.19
2022-10-17T00:13:57.715Z,100963.83
2022-10-17T00:14:10.849Z,100962.77
2022-10-17T00:14:23.920Z,100964.84
2022-10-17T00:14:37.526Z,100966.05
2022-10-17T00:14:50.591Z,100964.15
2022-10-17T00:15:06.252Z,100961.70
2022-10-17T00:15:21.585Z,100962.73
2022-10-17T00:15:34.978Z,100966.94
2022-10-17T00:15:47.959Z,100966.59
2022-10-17T00:16:01.318Z,100963.98
2022-10-17T00:16:14.745Z,100964.33
2022-10-17T00:16:29.243Z,100963.46
2022-10-17T00:16:42.254Z,100964.33
2022-10-17T00:16:55.230Z,100965.55
2022-10-17T00:17:08.788Z,100966.41
2022-10-17T00:17:21.795Z,100965.70
2022-10-17T00:17:35.002Z,100963.95
2022-10-17T00:17:46.362Z,100964.12
2022-10-17T00:17:59.654Z,100965.52
2022-10-17T00:18:12.667Z,100963.43
2022-10-17T00:18:25.983Z,100961.85
2022-10-17T00:18:39.082Z,100961.83
2022-10-17T00:18:52.239Z,100959.73
2022-10-17T00:19:06.729Z,100960.80
2022-10-17T00:19:19.669Z,100961.84
2022-10-17T00:19:33.073Z,100961.48
2022-10-17T00:19:46.222Z,100960.61
2022-10-17T00:20:01.530Z,100957.11
2022-10-17T00:20:16.294Z,100955.00
2022-10-17T00:20:30.515Z,100958.70
2022-10-17T00:20:43.515Z,100959.56
2022-10-17T00:20:56.508Z,100956.58
2022-10-17T00:21:15.793Z,100956.58
2022-10-17T00:21:29.895Z,100958.66
2022-10-17T00:21:42.842Z,100953.59
2022-10-17T00:21:54.217Z,100954.11
2022-10-17T00:22:07.146Z,100956.04
2022-10-17T00:22:20.089Z,100955.73
2022-10-17T00:22:33.096Z,100955.02
2022-10-17T00:22:46.372Z,100954.87
2022-10-17T00:22:58.010Z,100954.52
2022-10-17T00:23:10.943Z,100951.21
2022-10-17T00:23:24.507Z,100954.36
2022-10-17T00:23:37.655Z,100954.90
2022-10-17T00:23:51.476Z,100951.92
2022-10-17T00:24:04.934Z,100955.23
2022-10-17T00:24:18.117Z,100955.05
2022-10-17T00:24:33.063Z,100954.86
2022-10-17T00:24:46.037Z,100954.33
2022-10-17T00:24:59.357Z,100955.02
2022-10-17T00:25:13.566Z,100955.19
2022-10-17T00:25:26.565Z,100955.20
2022-10-17T00:25:40.670Z,100958.69
2022-10-17T00:26:02.557Z,100958.50
2022-10-17T00:26:16.669Z,100954.98
2022-10-17T00:26:30.648Z,100955.15
2022-10-17T00:26:43.632Z,100956.41
2022-10-17T00:26:55.203Z,100955.33
2022-10-17T00:27:08.192Z,100957.23
2022-10-17T00:27:21.689Z,100957.42
2022-10-17T00:27:37.940Z,100954.30
2022-10-17T00:27:50.902Z,100956.55
2022-10-17T00:28:04.203Z,100953.08
2022-10-17T00:28:18.380Z,100953.25
2022-10-17T00:28:31.696Z,100955.17
2022-10-17T00:28:43.078Z,100953.08
2022-10-17T00:28:56.998Z,100954.84
2022-10-17T00:29:08.383Z,100955.70
2022-10-17T00:29:21.455Z,100953.44
2022-10-17T00:29:34.508Z,100952.57
2022-10-17T00:29:51.176Z,100952.05
2022-10-17T00:30:05.482Z,100950.00
2022-10-17T00:30:18.971Z,100953.86
2022-10-17T00:30:32.912Z,100953.20
2022-10-17T00:30:45.861Z,100952.33
2022-10-17T00:31:05.792Z,100954.96
2022-10-17T00:31:20.426Z,100953.21
2022-10-17T00:31:34.036Z,100952.88
2022-10-17T00:31:47.525Z,100952.89
2022-10-17T00:32:00.677Z,100954.84
2022-10-17T00:32:12.113Z,100959.20
2022-10-17T00:32:25.559Z,100955.38
2022-10-17T00:32:38.906Z,100958.36
2022-10-17T00:32:51.940Z,100955.73
2022-10-17T00:33:05.050Z,100957.33
2022-10-17T00:33:16.463Z,100957.14
2022-10-17T00:33:30.921Z,100958.22
2022-10-17T00:33:44.277Z,100957.88
2022-10-17T00:33:57.370Z,100961.40
2022-10-17T00:34:10.385Z,100959.80
2022-10-17T00:34:23.420Z,100961.94
2022-10-17T00:34:38.112Z,100964.23
2022-10-17T00:34:51.074Z,100963.16
2022-10-17T00:35:03.320Z,100963.89
2022-10-17T00:35:16.335Z,100964.05
2022-10-17T00:35:29.410Z,100964.06
2022-10-17T00:35:42.377Z,100963.89
2022-10-17T00:36:05.572Z,100964.41
2022-10-17T00:36:20.368Z,100963.73
2022-10-17T00:36:34.973Z,100966.18
2022-10-17T00:36:48.425Z,100962.84
2022-10-17T00:37:01.650Z,100967.04
2022-10-17T00:37:14.819Z,100964.63
2022-10-17T00:37:28.120Z,100965.65
2022-10-17T00:37:41.605Z,100962.69
2022-10-17T00:37:54.881Z,100967.26
2022-10-17T00:38:08.348Z,100964.80
2022-10-17T00:38:21.674Z,100969.17
2022-10-17T00:38:35.069Z,100968.45
2022-10-17T00:38:47.607Z,100969.52
2022-10-17T00:39:01.975Z,100967.41
2022-10-17T00:39:14.983Z,100968.98
2022-10-17T00:39:26.891Z,100967.06
2022-10-17T00:39:39.955Z,100969.89
2022-10-17T00:39:53.230Z,100969.70
2022-10-17T00:40:07.740Z,100972.54
2022-10-17T00:40:21.271Z,100970.98
2022-10-17T00:40:34.262Z,100974.13
2022-10-17T00:40:47.386Z,100969.25
2022-10-17T00:41:00.211Z,100975.02
2022-10-17T00:41:16.190Z,100975.41
2022-10-17T00:41:32.958Z,100975.96
2022-10-17T00:41:44.449Z,100977.39
2022-10-17T00:41:57.415Z,100980.54
2022-10-17T00:42:13.615Z,100975.99
2022-10-17T00:42:27.101Z,100980.76
2022-10-17T00:42:40.205Z,100981.98
2022-10-17T00:42:53.313Z,100982.52
2022-10-17T00:43:06.334Z,100979.91
2022-10-17T00:43:21.268Z,100982.92
2022-10-17T00:43:52.198Z,100982.04
2022-10-17T00:44:08.039Z,100984.50
2022-10-17T00:44:55.137Z,100982.41
2022-10-17T00:45:14.017Z,100985.76
2022-10-17T00:45:30.730Z,100984.17
2022-10-17T00:45:43.648Z,100983.30
2022-10-17T00:45:57.988Z,100981.73
2022-10-17T00:46:11.237Z,100983.31
2022-10-17T00:46:27.695Z,100982.44
2022-10-17T00:46:41.386Z,100983.31
2022-10-17T00:46:55.235Z,100979.48
2022-10-17T00:47:13.976Z,100984.86
2022-10-17T00:47:25.422Z,100984.52
2022-10-17T00:47:38.666Z,100982.25
2022-10-17T00:47:56.286Z,100982.58
2022-10-17T00:48:13.059Z,100982.95
2022-10-17T00:48:27.454Z,100983.13
2022-10-17T00:48:40.590Z,100984.73
2022-10-17T00:48:56.696Z,100981.79
2022-10-17T00:49:12.558Z,100983.36
2022-10-17T00:49:27.529Z,100980.04
2022-10-17T00:49:41.967Z,100983.38
2022-10-17T00:49:55.083Z,100980.95
2022-10-17T00:50:10.837Z,100981.44
2022-10-17T00:50:24.857Z,100981.25
2022-10-17T00:50:40.906Z,100978.98
2022-10-17T00:50:54.073Z,100979.30
2022-10-17T00:51:07.767Z,100979.11
2022-10-17T00:51:26.707Z,100979.09
2022-10-17T00:51:42.949Z,100980.64
2022-10-17T00:52:00.265Z,100978.86
2022-10-17T00:52:19.105Z,100978.13
2022-10-17T00:52:33.332Z,100976.17
2022-10-17T00:52:47.783Z,100976.66
2022-10-17T00:53:04.291Z,100973.48
2022-10-17T00:53:17.961Z,100975.77
2022-10-17T00:53:31.176Z,100974.00
2022-10-17T00:53:42.701Z,100974.55
2022-10-17T00:53:54.554Z,100973.67
2022-10-17T00:54:09.065Z,100972.96
2022-10-17T00:54:25.482Z,100971.39
2022-10-17T00:54:42.190Z,100973.31
2022-10-17T00:54:59.670Z,100973.34
2022-10-17T00:55:17.582Z,100973.16
2022-10-17T00:55:34.335Z,100971.91
2022-10-17T00:55:52.835Z,100972.80
2022-10-17T00:56:06.504Z,100970.05
2022-10-17T00:56:20.051Z,100974.73
2022-10-17T00:56:33.998Z,100975.09
2022-10-17T00:56:48.239Z,100976.50
2022-10-17T00:57:01.432Z,100975.98
2022-10-17T00:57:15.255Z,100974.59
2022-10-17T00:57:29.091Z,100972.34
2022-10-17T00:57:43.000Z,100977.56
2022-10-17T00:57:56.826Z,100972.84
2022-10-17T00:58:10.181Z,100976.52
2022-10-17T00:58:23.894Z,100971.79
2022-10-17T00:58:36.972Z,100972.83
2022-10-17T00:58:49.831Z,100971.42
2022-10-17T00:59:03.420Z,100970.54
2022-10-17T00:59:20.584Z,100969.82
2022-10-17T00:59:37.235Z,100971.20
2022-10-17T00:59:53.212Z,100972.06
2022-10-17T01:00:11.967Z,100970.30
2022-10-17T01:00:25.479Z,100971.67
2022-10-17T01:00:39.052Z,100969.04
2022-10-17T01:00:50.727Z,100971.83
2022-10-17T01:01:04.970Z,100972.73
2022-10-17T01:01:18.344Z,100970.47
2022-10-17T01:01:31.726Z,100972.60
2022-10-17T01:01:50.489Z,100972.77
2022-10-17T01:02:07.352Z,100968.77
2022-10-17T01:02:22.417Z,100971.56
2022-10-17T01:02:35.464Z,100970.52
2022-10-17T01:02:48.838Z,100967.92
2022-10-17T01:03:03.113Z,100971.77
2022-10-17T01:03:17.055Z,100969.67
2022-10-17T01:03:30.141Z,100973.52
2022-10-17T01:03:43.459Z,100971.61
2022-10-17T01:03:56.438Z,100970.59
2022-10-17T01:04:09.422Z,100974.23
2022-10-17T01:04:22.919Z,100969.52
2022-10-17T01:04:36.746Z,100969.52
2022-10-17T01:04:49.639Z,100972.52
2022-10-17T01:05:03.843Z,100972.17
2022-10-17T01:05:17.392Z,100971.27
2022-10-17T01:05:30.527Z,100971.82
2022-10-17T01:05:44.170Z,100969.03
2022-10-17T01:05:58.019Z,100970.91
2022-10-17T01:06:11.106Z,100972.85
2022-10-17T01:06:24.562Z,100970.96
2022-10-17T01:06:37.517Z,100971.66
2022-10-17T01:06:48.854Z,100968.88
2022-10-17T01:07:01.944Z,100970.96
2022-10-17T01:07:15.273Z,100969.73
2022-10-17T01:07:33.174Z,100966.06
2022-10-17T01:07:51.222Z,100967.81
2022-10-17T01:08:04.321Z,100967.10
2022-10-17T01:08:17.922Z,100968.52
2022-10-17T01:08:31.178Z,100965.86
2022-10-17T01:08:44.294Z,100965.02
2022-10-17T01:08:55.815Z,100968.67
2022-10-17T01:09:08.991Z,100966.42
2022-10-17T01:09:22.348Z,100965.19
2022-10-17T01:09:35.692Z,100967.80
2022-10-17T01:09:49.673Z,100964.64
2022-10-17T01:10:03.224Z,100963.60
2022-10-17T01:10:16.946Z,100967.45
2022-10-17T01:10:36.133Z,100969.86
2022-10-17T01:10:59.795Z,100966.56
2022-10-17T01:11:21.848Z,100966.60
2022-10-17T01:11:39.619Z,100968.19
2022-10-17T01:11:58.102Z,100968.73
2022-10-17T01:12:20.825Z,100970.86
2022-10-17T01:12:42.541Z,100968.80
2022-10-17T01:13:05.583Z,100971.27
2022-10-17T01:13:25.402Z,100968.52
2022-10-17T01:13:43.966Z,100968.87
2022-10-17T01:14:03.971Z,100972.20
2022-10-17T01:14:27.713Z,100972.40
2022-10-17T01:14:49.781Z,100971.73
2022-10-17T01:15:11.779Z,100976.68
2022-10-17T01:15:36.485Z,100975.48
2022-10-17T01:16:05.570Z,100974.83
2022-10-17T01:16:24.545Z,100976.13
2022-10-17T01:16:48.985Z,100978.09
2022-10-17T01:17:07.582Z,100977.91
2022-10-17T01:17:30.623Z,100978.13
2022-10-17T01:17:54.891Z,100981.32
2022-10-17T01:18:14.789Z,100982.38
2022-10-17T01:18:39.688Z,100982.42
2022-10-17T01:19:01.525Z,100980.70
2022-10-17T01:19:28.800Z,100982.83
2022-10-17T01:20:00.818Z,100984.59
2022-10-17T01:20:46.844Z,100983.54
2022-10-17T01:21:11.869Z,100981.11
2022-10-17T01:21:39.842Z,100980.63
2022-10-17T01:22:01.479Z,100979.97
2022-10-17T01:22:19.005Z,100981.05
2022-10-17T01:22:41.840Z,100977.76
2022-10-17T01:23:06.013Z,100979.15
2022-10-17T01:23:34.787Z,100977.27
2022-10-17T01:24:05.203Z,100974.46
2022-10-17T01:24:57.110Z,100976.39
2022-10-17T01:25:24.991Z,100973.40
2022-10-17T01:25:53.782Z,100971.96
2022-10-17T01:26:18.953Z,100968.95
2022-10-17T01:26:45.552Z,100967.91
2022-10-17T01:27:16.819Z,100968.78
2022-10-17T01:27:50.242Z,100967.75
2022-10-17T01:28:19.955Z,100967.75
2022-10-17T01:29:26.596Z,100961.61
2022-10-17T01:29:58.999Z,100964.79
2022-10-17T01:30:53.749Z,100959.39
2022-10-17T01:31:11.431Z,100962.41
2022-10-17T01:31:27.036Z,100962.23
2022-10-17T01:31:45.924Z,100962.77
2022-10-17T01:32:03.624Z,100962.61
2022-10-17T01:32:20.003Z,100959.33
2022-10-17T01:32:39.907Z,100962.29
2022-10-17T01:32:58.151Z,100961.08
2022-10-17T01:33:15.604Z,100961.60
2022-10-17T01:33:33.999Z,100959.89
2022-10-17T01:34:00.002Z,100959.02
2022-10-17T01:34:20.231Z,100958.20
2022-10-17T01:34:36.060Z,100961.88
2022-10-17T01:34:55.321Z,100959.80
2022-10-17T01:35:11.597Z,100956.48
2022-10-17T01:35:30.958Z,100959.66
2022-10-17T01:35:53.961Z,100959.52
2022-10-17T01:36:12.937Z,100959.71
2022-10-17T01:36:38.810Z,100961.65
2022-10-17T01:36:52.638Z,100958.17
2022-10-17T01:37:10.052Z,100957.45
2022-10-17T01:37:29.769Z,100959.25
2022-10-17T01:37:49.619Z,100962.59
2022-10-17T01:38:10.657Z,100962.96
2022-10-17T01:38:26.815Z,100962.61
2022-10-17T01:38:47.747Z,100965.96
2022-10-17T01:39:08.425Z,100966.67
2022-10-17T01:39:28.043Z,100963.75
2022-10-17T01:39:48.286Z,100963.56
2022-10-17T01:40:10.589Z,100965.51
2022-10-17T01:40:28.695Z,100965.51
2022-10-17T01:40:44.838Z,100963.41
2022-10-17T01:41:00.625Z,100966.23
2022-10-17T01:41:16.282Z,100967.65
2022-10-17T01:41:31.328Z,100965.90
2022-10-17T01:41:50.196Z,100966.46
2022-10-17T01:42:11.948Z,100966.14
2022-10-17T01:42:30.617Z,100965.80
2022-10-17T01:42:49.446Z,100967.20
2022-10-17T01:43:08.820Z,100966.70
2022-10-17T01:43:27.667Z,100966.02
2022-10-17T01:43:42.671Z,100966.72
2022-10-17T01:44:00.673Z,100967.95
2022-10-17T01:44:15.091Z,100969.39
2022-10-17T01:44:33.978Z,100966.04
2022-10-17T01:44:50.678Z,100967.43
2022-10-17T01:45:08.270Z,100970.23
2022-10-17T01:45:26.761Z,100970.91
2022-10-17T01:45:46.640Z,100969.17
2022-10-17T01:46:04.736Z,100971.40
2022-10-17T01:46:24.509Z,100969.65
2022-10-17T01:46:40.088Z,100972.27
2022-10-17T01:46:52.721Z,100969.85
2022-10-17T01:47:10.386Z,100971.42
2022-10-17T01:47:27.336Z,100971.82
2022-10-17T01:47:39.582Z,100969.35
2022-10-17T01:47:54.751Z,100973.02
2022-10-17T01:48:13.907Z,100974.09
2022-10-17T01:48:31.455Z,100972.70
2022-10-17T01:48:47.021Z,100972.56
2022-10-17T01:49:04.387Z,100975.55
2022-10-17T01:49:22.303Z,100973.09
2022-10-17T01:49:35.426Z,100975.38
2022-10-17T01:49:51.957Z,100978.02
2022-10-17T01:50:08.026Z,100976.61
2022-10-17T01:50:25.233Z,100977.14
2022-10-17T01:50:44.864Z,100974.70
2022-10-17T01:51:04.285Z,100972.42
2022-10-17T01:51:18.824Z,100973.30
2022-10-17T01:51:35.640Z,100973.65
2022-10-17T01:51:52.916Z,100975.41
2022-10-17T01:52:11.095Z,100974.02
2022-10-17T01:52:28.963Z,100975.08
2022-10-17T01:52:47.692Z,100973.52
2022-10-17T01:53:06.337Z,100971.39
2022-10-17T01:53:25.510Z,100972.28
2022-10-17T01:53:44.335Z,100966.54
2022-10-17T01:54:03.569Z,100965.67
2022-10-17T01:54:21.269Z,100966.58
2022-10-17T01:54:39.680Z,100967.60
2022-10-17T01:54:56.259Z,100967.05
2022-10-17T01:55:14.972Z,100967.93
2022-10-17T01:55:28.937Z,100971.96
2022-10-17T01:55:45.501Z,100970.90
2022-10-17T01:56:01.866Z,100970.05
2022-10-17T01:56:18.641Z,100971.11
2022-10-17T01:56:34.240Z,100971.98
2022-10-17T01:56:47.587Z,100972.90
2022-10-17T01:57:01.489Z,100974.63
2022-10-17T01:57:18.426Z,100976.41
2022-10-17T01:57:37.289Z,100975.18
2022-10-17T01:57:55.216Z,100975.77
2022-10-17T01:58:13.653Z,100977.35
2022-10-17T01:58:31.937Z,100974.05
2022-10-17T01:58:51.223Z,100972.69
2022-10-17T01:59:10.632Z,100972.17
2022-10-17T01:59:30.309Z,100973.63
2022-10-17T01:59:45.549Z,100973.30
2022-10-17T01:59:59.334Z,100975.95
2022-10-17T02:00:18.194Z,100976.67
2022-10-17T02:00:33.634Z,100973.88
2022-10-17T02:00:49.760Z,100977.41
2022-10-17T02:01:05.711Z,100976.20
2022-10-17T02:01:18.443Z,100975.17
2022-10-17T02:01:32.784Z,100974.86
2022-10-17T02:01:47.855Z,100974.30
2022-10-17T02:02:00.673Z,100976.95
2022-10-17T02:02:15.785Z,100980.13
2022-10-17T02:02:30.295Z,100977.50
2022-10-17T02:02:45.368Z,100978.75
2022-10-17T02:03:04.790Z,100976.14
2022-10-17T02:03:20.920Z,100975.08
2022-10-17T02:03:35.618Z,100977.73
2022-10-17T02:03:52.612Z,100977.39
2022-10-17T02:04:06.758Z,100974.27
2022-10-17T02:04:18.120Z,100979.34
2022-10-17T02:04:31.350Z,100976.73
2022-10-17T02:04:45.151Z,100980.73
2022-10-17T02:05:15.351Z,100974.46
2022-10-17T02:05:33.318Z,100974.64
2022-10-17T02:05:46.968Z,100976.91
2022-10-17T02:06:00.021Z,100975.34
2022-10-17T02:06:13.921Z,100975.34
2022-10-17T02:06:27.006Z,100973.59
2022-10-17T02:06:39.259Z,100974.13
2022-10-17T02:06:57.230Z,100977.08
2022-10-17T02:07:11.680Z,100974.63
2022-10-17T02:07:23.315Z,100976.53
2022-10-17T02:07:36.320Z,100976.55
2022-10-17T02:07:49.288Z,100975.13
2022-10-17T02:08:02.239Z,100973.71
2022-10-17T02:08:15.775Z,100974.77
2022-10-17T02:08:31.559Z,100975.29
2022-10-17T02:08:47.241Z,100974.60
2022-10-17T02:09:00.625Z,100975.98
2022-10-17T02:09:25.370Z,100974.94
2022-10-17T02:09:38.906Z,100974.08
2022-10-17T02:09:52.038Z,100974.41
2022-10-17T02:10:05.882Z,100975.84
2022-10-17T02:10:26.228Z,100974.98
2022-10-17T02:10:44.200Z,100976.22
2022-10-17T02:11:02.115Z,100973.95
2022-10-17T02:11:18.890Z,100973.95
2022-10-17T02:11:32.236Z,100972.61
2022-10-17T02:11:53.588Z,100975.57
2022-10-17T02:12:46.553Z,100972.95
2022-10-17T02:13:06.535Z,100975.13
2022-10-17T02:13:28.596Z,100973.91
2022-10-17T02:13:52.636Z,100976.71
2022-10-17T02:14:29.321Z,100974.65
2022-10-17T02:14:54.973Z,100978.16
2022-10-17T02:15:11.670Z,100977.70
2022-10-17T02:15:39.959Z,100978.42
2022-10-17T02:16:14.291Z,100977.73
2022-10-17T02:16:35.287Z,100975.33
2022-10-17T02:17:01.711Z,100978.10
2022-10-17T02:17:20.994Z,100980.42
2022-10-17T02:17:46.211Z,100981.48
2022-10-17T02:18:09.734Z,100976.81
2022-10-17T02:18:37.381Z,100977.73
2022-10-17T02:18:56.900Z,100979.84
2022-10-17T02:19:46.611Z,100979.02
2022-10-17T02:20:09.900Z,100976.73
2022-10-17T02:20:27.915Z,100979.21
2022-10-17T02:20:50.848Z,100978.92
2022-10-17T02:21:09.541Z,100978.37
2022-10-17T02:21:33.675Z,100976.50
2022-10-17T02:21:51.355Z,100978.77
2022-10-17T02:22:08.405Z,100976.85
2022-10-17T02:22:31.772Z,100978.62
2022-10-17T02:22:48.960Z,100978.80
2022-10-17T02:23:11.112Z,100978.46
2022-10-17T02:23:37.325Z,100979.52
2022-10-17T02:23:57.195Z,100978.65
2022-10-17T02:24:18.542Z,100979.70
2022-10-17T02:24:39.123Z,100983.04
2022-10-17T02:25:01.399Z,100980.94
2022-10-17T02:25:22.782Z,100982.20
2022-10-17T02:25:46.039Z,100982.59
2022-10-17T02:26:08.395Z,100984.55
2022-10-17T02:26:27.259Z,100981.09
2022-10-17T02:26:46.939Z,100982.86
2022-10-17T02:27:09.293Z,100985.33
2022-10-17T02:27:34.780Z,100980.98
2022-10-17T02:27:58.118Z,100985.23
2022-10-17T02:28:21.255Z,100981.94
2022-10-17T02:28:41.736Z,100987.40
2022-10-17T02:29:04.590Z,100983.94
2022-10-17T02:29:21.581Z,100985.52
2022-10-17T02:29:40.531Z,100988.88
2022-10-17T02:30:03.060Z,100988.02
2022-10-17T02:30:24.757Z,100986.14
2022-10-17T02:30:43.301Z,100983.34
2022-10-17T02:30:55.949Z,100983.53
2022-10-17T02:31:14.811Z,100987.21
2022-10-17T02:31:33.171Z,100990.73
2022-10-17T02:31:50.945Z,100990.52
2022-10-17T02:32:08.192Z,100989.66
2022-10-17T02:32:26.370Z,100989.31
2022-10-17T02:32:48.053Z,100992.10
2022-10-17T02:33:12.595Z,100996.67
2022-10-17T02:33:30.462Z,100999.32
2022-10-17T02:33:50.271Z,100999.83
2022-10-17T02:34:04.977Z,101001.77
2022-10-17T02:34:22.823Z,101000.90
2022-10-17T02:34:42.487Z,101001.78
2022-10-17T02:34:56.612Z,101000.23
2022-10-17T02:35:14.478Z,101004.73
2022-10-17T02:35:31.527Z,101005.27
2022-10-17T02:35:48.776Z,101005.63
2022-10-17T02:36:10.308Z,101007.89
2022-10-17T02:36:27.705Z,101007.89
2022-10-17T02:36:45.204Z,101005.61
2022-10-17T02:37:01.791Z,101009.13
2022-10-17T02:37:16.236Z,101002.15
2022-10-17T02:37:32.178Z,101008.06
2022-10-17T02:37:47.281Z,101006.88
2022-10-17T02:38:02.089Z,101004.77
2022-10-17T02:38:15.813Z,101006.39
2022-10-17T02:38:31.830Z,101004.63
2022-10-17T02:38:43.629Z,101003.45
2022-10-17T02:38:57.200Z,101006.58
2022-10-17T02:39:12.928Z,101009.03
2022-10-17T02:39:29.527Z,101005.71
2022-10-17T02:39:44.165Z,101002.74
2022-10-17T02:40:01.977Z,101008.18
2022-10-17T02:40:18.189Z,101007.48
2022-10-17T02:40:32.881Z,101010.13
2022-10-17T02:40:48.058Z,101006.64
2022-10-17T02:41:02.431Z,101006.63
2022-10-17T02:41:19.355Z,101011.53
2022-10-17T02:41:34.371Z,101010.15
2022-10-17T02:41:49.178Z,101009.27
2022-10-17T02:42:05.471Z,101009.63
2022-10-17T02:42:19.287Z,101008.41
2022-10-17T02:42:33.969Z,101009.48
2022-10-17T02:42:51.165Z,101009.47
2022-10-17T02:43:04.625Z,101012.10
2022-10-17T02:43:17.849Z,101013.88
2022-10-17T02:43:31.452Z,101014.56
2022-10-17T02:43:45.852Z,101012.46
2022-10-17T02:44:02.276Z,101013.86
2022-10-17T02:44:14.049Z,101013.52
2022-10-17T02:44:28.262Z,101015.65
2022-10-17T02:44:44.522Z,101014.45
2022-10-17T02:45:03.031Z,101013.05
2022-10-17T02:45:17.824Z,101015.52
2022-10-17T02:45:30.347Z,101018.13
2022-10-17T02:45:44.023Z,101019.89
2022-10-17T02:45:57.811Z,101017.10
2022-10-17T02:46:11.596Z,101017.30
2022-10-17T02:46:24.680Z,101017.30
2022-10-17T02:46:39.614Z,101017.15
2022-10-17T02:47:01.075Z,101016.61
2022-10-17T02:47:18.992Z,101017.14
2022-10-17T02:47:37.974Z,101018.02
2022-10-17T02:47:59.104Z,101018.70
2022-10-17T02:48:18.564Z,101017.14
2022-10-17T02:48:38.302Z,101016.27
2022-10-17T02:48:54.503Z,101017.66
2022-10-17T02:49:15.407Z,101018.17
2022-10-17T02:49:33.044Z,101017.64
2022-10-17T02:49:52.260Z,101014.50
2022-10-17T02:50:04.329Z,101017.13
2022-10-17T02:50:17.849Z,101014.14
2022-10-17T02:50:40.760Z,101016.59
2022-10-17T02:51:00.903Z,101015.72
2022-10-17T02:51:25.297Z,101014.66
2022-10-17T02:51:43.999Z,101016.76
2022-10-17T02:52:02.947Z,101017.64
2022-10-17T02:52:21.223Z,101017.30
2022-10-17T02:52:40.926Z,101018.88
2022-10-17T02:52:57.947Z,101013.81
2022-10-17T02:53:15.717Z,101021.52
2022-10-17T02:53:35.720Z,101022.76
2022-10-17T02:53:59.504Z,101020.51
2022-10-17T02:54:18.916Z,101022.80
2022-10-17T02:54:40.216Z,101022.30
2022-10-17T02:54:57.628Z,101020.04
2022-10-17T02:55:17.871Z,101020.58
2022-10-17T02:55:35.428Z,101025.83
2022-10-17T02:55:53.415Z,101020.45
2022-10-17T02:56:13.685Z,101025.35
2022-10-17T02:56:32.054Z,101026.10
2022-10-17T02:56:49.542Z,101027.88
2022-10-17T02:57:02.631Z,101025.10
2022-10-17T02:57:21.552Z,101030.73
2022-10-17T02:57:38.613Z,101029.70
2022-10-17T02:57:54.851Z,101031.15
2022-10-17T02:58:13.447Z,101030.27
2022-10-17T02:58:30.914Z,101032.73
2022-10-17T02:58:47.440Z,101034.15
2022-10-17T02:59:04.614Z,101037.14
2022-10-17T02:59:20.062Z,101035.76
2022-10-17T02:59:31.870Z,101038.56
2022-10-17T02:59:47.067Z,101037.88
2022-10-17T03:00:02.654Z,101038.94
2022-10-17T03:00:18.227Z,101034.42
2022-10-17T03:00:33.309Z,101037.94
2022-10-17T03:00:46.580Z,101036.74
2022-10-17T03:01:00.409Z,101039.18
2022-10-17T03:01:16.899Z,101037.11
2022-10-17T03:01:30.586Z,101038.34
2022-10-17T03:01:42.342Z,101039.26
2022-10-17T03:01:55.715Z,101039.08
2022-10-17T03:02:09.559Z,101038.58
2022-10-17T03:02:21.787Z,101042.05
2022-10-17T03:02:44.082Z,101042.38
2022-10-17T03:02:57.713Z,101041.85
2022-10-17T03:03:25.299Z,101042.54
2022-10-17T03:03:38.372Z,101045.52
2022-10-17T03:03:51.613Z,101046.75
2022-10-17T03:04:12.997Z,101046.92
2022-10-17T03:04:25.933Z,101044.66
2022-10-17T03:04:39.436Z,101049.02
2022-10-17T03:04:52.798Z,101051.30
2022-10-17T03:05:06.220Z,101050.96
2022-10-17T03:05:22.326Z,101049.20
2022-10-17T03:05:35.277Z,101052.86
2022-10-17T03:05:48.369Z,101052.69
2022-10-17T03:06:01.701Z,101049.55
2022-10-17T03:06:14.804Z,101054.10
2022-10-17T03:06:28.068Z,101050.25
2022-10-17T03:06:42.823Z,101054.80
2022-10-17T03:06:55.832Z,101054.09
2022-10-17T03:07:09.500Z,101055.66
2022-10-17T03:07:21.012Z,101054.27
2022-10-17T03:07:34.112Z,101056.35
2022-10-17T03:07:47.350Z,101056.02
2022-10-17T03:08:00.706Z,101057.07
2022-10-17T03:08:12.839Z,101055.33
2022-10-17T03:08:25.996Z,101059.33
2022-10-17T03:08:39.410Z,101055.14
2022-10-17T03:08:52.679Z,101054.59
2022-10-17T03:09:05.835Z,101054.96
2022-10-17T03:09:19.079Z,101058.29
2022-10-17T03:09:32.306Z,101055.14
2022-10-17T03:09:45.328Z,101053.73
2022-10-17T03:09:58.311Z,101056.00
2022-10-17T03:10:12.248Z,101054.42
2022-10-17T03:10:23.872Z,101055.46
2022-10-17T03:10:37.145Z,101051.45
2022-10-17T03:10:50.557Z,101050.75
2022-10-17T03:11:04.326Z,101053.55